Aérodrome :
LOGIN :

S'inscrire | Disclaimer

   EN    FR    IT 

 










Légende :    VFR   VFR Marginal   IFR   IFR Intensif   IFR Très Intensif
Visi : 
Plafond : 
>= 8 km
>= 3000ft
5 à 8 km
1000 à 3000 ft
1500m à 5 km
500 à 1000 ft
800 à 1500m
200 à 500 ft
< 800m
< 200 ft
Symboles :   Orages  Brouillard  Fortes neiges  Fortes précipitations  Vent > 20 kt
SIGMETs :   Divers  Orages  Givrage  Turbulence  Onde Orograph.  Cendres Volcan.







- Altitude de l'aérodrome : 72 ft
- Code IATA : UDE


EHVK - Volkel Airbase

DERNIER METAR :
  • 161829Z AUTO 08002KT 7000 HZ OVC320 14/10 Q1018 WHT

METARs EXPIRÉS :
  • 161825Z AUTO 08002KT 9999 OVC320 14/11 Q1018 BLU
  • 161812Z AUTO 08001KT 9999 OVC310 15/11 Q1018 BLU
  • 161759Z AUTO 11001KT 1300 HZ OVC300 16/11 Q1018 AMB
  • 161755Z AUTO 11001KT 5000 HZ OVC300 16/11 Q1018 WHT
  • 161739Z AUTO 09002KT 1900 HZ OVC290 16/11 Q1018 YLO
  • 161726Z AUTO 10003KT 6000 HZ OVC290 16/11 Q1018 WHT
  • 161725Z AUTO 10003KT 9999 OVC290 16/11 Q1018 BLU
  • 161655Z AUTO 12003KT 9999 SCT180 OVC310 17/10 Q1018 BLU
  • 161625Z AUTO 14003KT 9999 OVC170 20/11 Q1017 BLU
  • 161555Z AUTO 14003KT 9999 OVC170 22/10 Q1017 BLU

TAF TAF EHVK
Valide du 16 à 09h jusqu'au 16 à 21h UTC


160843Z 1609/1621 17004KT CAVOK
BECMG 1615/1617 12005KT
Pas de NOTAMs connus pour ce terrain.



MET'MAP, la Météo Aéronautique d'un coup d'oeil ! - Copyright ORBIFLY Décembre 2007 - Disclaimer

ORBIFLY MET'MAP TEAM :

Programmation & Développement : Alexandra Zaïnal
Conception & Développement : Baudouin d'Aumeries
Co-Programmation & Développement : Marc-Olivier Méhu
Soutien technique & logistique : Manuel Goepfert

Contact : metmap@orbifly.com




SOURCES & CREDITS :

   NOAA